Mt New Conquest — V7GG4 — position and weather

sailwx.info

Track history (hours):
 
Tides and Currents Weather Stations Pressure Air Temp Water Temp Dewpoint Dewpoint Depression Visibility Wind Speed Wind Dir Waves Ship Positions

Mt New Conquest

Last reported at 2014-Nov-07 04:33 UTC. Time now 2014-Nov-24 03:00 UTC.
Position N 29°40' W 120°10'.
Warning: this ship's position is 16 days out of date.

Length 228 m; draft 10.6 m.

Type: Ship (hazmat cat A). MMSI: 538002089.

Date/timePositionNaut miles runAvg speedWind from/ knotsBaromVisibWave heightAir tempDewpointWater temp
2014-Nov-07 04:33N 29°40' W 120°10'2813.2
2014-Nov-07 02:27N 30°03' W 120°28'1213.3
2014-Nov-07 01:32N 30°13' W 120°35'1313.2
2014-Nov-07 00:33N 30°24' W 120°43'11612.9
2014-Nov-06 15:33N 32°02' W 121°58'1312.8
2014-Nov-06 14:33N 32°12' W 122°06'3913.0
2014-Nov-06 11:33N 32°45' W 122°32'1613.1
2014-Nov-06 10:22N 32°58' W 122°42'1112.6
2014-Nov-06 09:27N 33°09' W 122°44'22213.0
2014-Nov-05 16:18N 36°51' W 122°53'1012.8
2014-Nov-05 15:33N 37°01' W 122°54'1212.0
2014-Nov-05 14:34N 37°12' W 122°47'1412.4
2014-Nov-05 13:25N 37°26' W 122°44'1112.9
2014-Nov-05 12:31N 37°37' W 122°44'1010.2
2014-Nov-05 11:33N 37°46' W 122°39'1212.2
2014-Nov-05 10:34N 37°51' W 122°25'9 8.9
2014-Nov-05 09:34N 38°00' W 122°25'9 8.7
2014-Nov-05 08:33N 38°04' W 122°15'7 5.4
2014-Nov-05 07:17N 38°03' W 122°06'0 0.0
2014-Nov-04 04:21N 38°03' W 122°06'0 0.0
2014-Nov-04 03:33N 38°03' W 122°06'0 0.0
2014-Nov-03 10:09N 38°03' W 122°06'0 0.0
2014-Nov-03 08:21N 38°03' W 122°06'0 0.0
2014-Nov-03 03:33N 38°03' W 122°06'2 1.6
2014-Nov-03 02:33N 38°02' W 122°08'7 6.7
2014-Nov-03 01:33N 38°04' W 122°16'1110.6
2014-Nov-03 00:33N 37°57' W 122°27'1211.6
2014-Nov-02 23:33N 37°46' W 122°22'1 0.7
2014-Nov-02 22:33N 37°46' W 122°21'0 0.1
2014-Nov-02 21:33N 37°46' W 122°21'0 0.0
2014-Nov-02 20:33N 37°46' W 122°21'0 0.0
2014-Nov-02 19:33N 37°46' W 122°21'0 0.0
2014-Nov-02 18:33N 37°46' W 122°21'0 0.0
2014-Nov-02 17:33N 37°46' W 122°21'0 0.2
2014-Nov-02 16:33N 37°45' W 122°21'0 0.0
2014-Nov-02 15:33N 37°45' W 122°21'0 0.0
2014-Nov-02 14:33N 37°45' W 122°21'0 0.0
2014-Nov-02 13:33N 37°45' W 122°21'0 0.0
2014-Nov-02 12:33N 37°45' W 122°21'0 0.0
2014-Nov-02 11:33N 37°45' W 122°21'0 0.0
2014-Nov-02 10:33N 37°45' W 122°21'0 0.2
2014-Nov-02 09:33N 37°46' W 122°21'0 0.1
2014-Nov-02 08:33N 37°46' W 122°21'0 0.0
2014-Nov-02 07:33N 37°46' W 122°21'3 2.8
2014-Nov-02 06:33N 37°48' W 122°23'10 9.6
2014-Nov-02 05:33N 37°47' W 122°35'10 9.8
2014-Nov-02 04:33N 37°42' W 122°45'10 9.8
2014-Nov-02 03:33N 37°36' W 122°55'8 8.3
2014-Nov-02 02:33N 37°31' W 123°04'7 7.2
2014-Nov-02 01:31N 37°27' W 123°12'  
2014-Oct-30 12:31N 30°06' W 118°23'1 0.7
2014-Oct-30 11:32N 30°06' W 118°24'1 0.6
2014-Oct-30 10:15N 30°06' W 118°25'9 0.9
2014-Oct-30 00:21N 30°08' W 118°35'1 1.0
2014-Oct-29 23:30N 30°08' W 118°36'4 1.1
2014-Oct-29 20:19N 30°08' W 118°40'1 1.1
2014-Oct-29 19:29N 30°08' W 118°41'2 0.6
2014-Oct-29 16:04N 30°10' W 118°43'19 1.2
2014-Oct-28 23:30N 30°29' W 118°45'8 9.0
2014-Oct-28 22:33N 30°23' W 118°39'1110.6
2014-Oct-28 21:33N 30°14' W 118°31'  
Track history (hours):
 
Tides and Currents Weather Stations Pressure Air Temp Water Temp Dewpoint Dewpoint Depression Visibility Wind Speed Wind Dir Waves Ship Positions

Mt New Conquest

Last reported at 2014-Nov-07 04:33 UTC. Time now 2014-Nov-24 03:00 UTC.
Position N 29°40' W 120°10'.
Warning: this ship's position is 16 days out of date.

Length 228 m; draft 10.6 m.

Type: Ship (hazmat cat A). MMSI: 538002089.

Date/timePositionNaut miles runAvg speedWind from/ knotsBaromVisibWave heightAir tempDewpointWater temp
2014-Nov-07 04:33N 29°40' W 120°10'2813.2
2014-Nov-07 02:27N 30°03' W 120°28'1213.3
2014-Nov-07 01:32N 30°13' W 120°35'1313.2
2014-Nov-07 00:33N 30°24' W 120°43'11612.9
2014-Nov-06 15:33N 32°02' W 121°58'1312.8
2014-Nov-06 14:33N 32°12' W 122°06'3913.0
2014-Nov-06 11:33N 32°45' W 122°32'1613.1
2014-Nov-06 10:22N 32°58' W 122°42'1112.6
2014-Nov-06 09:27N 33°09' W 122°44'22213.0
2014-Nov-05 16:18N 36°51' W 122°53'1012.8
2014-Nov-05 15:33N 37°01' W 122°54'1212.0
2014-Nov-05 14:34N 37°12' W 122°47'1412.4
2014-Nov-05 13:25N 37°26' W 122°44'1112.9
2014-Nov-05 12:31N 37°37' W 122°44'1010.2
2014-Nov-05 11:33N 37°46' W 122°39'1212.2
2014-Nov-05 10:34N 37°51' W 122°25'9 8.9
2014-Nov-05 09:34N 38°00' W 122°25'9 8.7
2014-Nov-05 08:33N 38°04' W 122°15'7 5.4
2014-Nov-05 07:17N 38°03' W 122°06'0 0.0
2014-Nov-04 04:21N 38°03' W 122°06'0 0.0
2014-Nov-04 03:33N 38°03' W 122°06'0 0.0
2014-Nov-03 10:09N 38°03' W 122°06'0 0.0
2014-Nov-03 08:21N 38°03' W 122°06'0 0.0
2014-Nov-03 03:33N 38°03' W 122°06'2 1.6
2014-Nov-03 02:33N 38°02' W 122°08'7 6.7
2014-Nov-03 01:33N 38°04' W 122°16'1110.6
2014-Nov-03 00:33N 37°57' W 122°27'1211.6
2014-Nov-02 23:33N 37°46' W 122°22'1 0.7
2014-Nov-02 22:33N 37°46' W 122°21'0 0.1
2014-Nov-02 21:33N 37°46' W 122°21'0 0.0
2014-Nov-02 20:33N 37°46' W 122°21'0 0.0
2014-Nov-02 19:33N 37°46' W 122°21'0 0.0
2014-Nov-02 18:33N 37°46' W 122°21'0 0.0
2014-Nov-02 17:33N 37°46' W 122°21'0 0.2
2014-Nov-02 16:33N 37°45' W 122°21'0 0.0
2014-Nov-02 15:33N 37°45' W 122°21'0 0.0
2014-Nov-02 14:33N 37°45' W 122°21'0 0.0
2014-Nov-02 13:33N 37°45' W 122°21'0 0.0
2014-Nov-02 12:33N 37°45' W 122°21'0 0.0
2014-Nov-02 11:33N 37°45' W 122°21'0 0.0
2014-Nov-02 10:33N 37°45' W 122°21'0 0.2
2014-Nov-02 09:33N 37°46' W 122°21'0 0.1
2014-Nov-02 08:33N 37°46' W 122°21'0 0.0
2014-Nov-02 07:33N 37°46' W 122°21'3 2.8
2014-Nov-02 06:33N 37°48' W 122°23'10 9.6
2014-Nov-02 05:33N 37°47' W 122°35'10 9.8
2014-Nov-02 04:33N 37°42' W 122°45'10 9.8
2014-Nov-02 03:33N 37°36' W 122°55'8 8.3
2014-Nov-02 02:33N 37°31' W 123°04'7 7.2
2014-Nov-02 01:31N 37°27' W 123°12'  
2014-Oct-30 12:31N 30°06' W 118°23'1 0.7
2014-Oct-30 11:32N 30°06' W 118°24'1 0.6
2014-Oct-30 10:15N 30°06' W 118°25'9 0.9
2014-Oct-30 00:21N 30°08' W 118°35'1 1.0
2014-Oct-29 23:30N 30°08' W 118°36'4 1.1
2014-Oct-29 20:19N 30°08' W 118°40'1 1.1
2014-Oct-29 19:29N 30°08' W 118°41'2 0.6
2014-Oct-29 16:04N 30°10' W 118°43'19 1.2
2014-Oct-28 23:30N 30°29' W 118°45'8 9.0
2014-Oct-28 22:33N 30°23' W 118°39'1110.6
2014-Oct-28 21:33N 30°14' W 118°31'  

Dump ship's entire track history